Time;durP1;ratioP1;P1;durP2;ratioP2;P2;SDS_P1;SDS_P2;PMS_P1;PMS_P2;Temp;Humidity;BMP_temperature;BMP_pressure;BME280_temperature;BME280_humidity;BME280_pressure;Samples;Min_cycle;Max_cycle;Signal;HPM_P1;HPM_P2
2021/12/07 00:01:39;;;;;;;55.60;21.60;;;3.40;92.00;;;;;;5049678;28;20067;-90
2021/12/07 00:04:06;;;;;;;55.90;21.00;;;3.30;92.00;;;;;;5041534;28;20441;-90
2021/12/07 00:06:31;;;;;;;65.00;22.27;;;3.30;92.00;;;;;;5048538;28;20071;-90
2021/12/07 00:08:57;;;;;;;57.03;22.70;;;3.30;92.00;;;;;;5031001;28;20569;-90
2021/12/07 00:11:26;;;;;;;55.55;21.58;;;3.30;92.00;;;;;;5050676;28;20059;-89
2021/12/07 00:13:53;;;;;;;60.90;22.42;;;3.30;92.00;;;;;;5070995;28;20575;-90
2021/12/07 00:16:19;;;;;;;59.03;23.63;;;3.30;92.00;;;;;;5045526;28;20197;-89
2021/12/07 00:18:46;;;;;;;61.00;21.63;;;3.20;92.00;;;;;;5036083;28;20108;-89
2021/12/07 00:21:16;;;;;;;61.08;23.17;;;3.20;92.00;;;;;;5036800;28;20086;-87
2021/12/07 00:23:42;;;;;;;58.45;23.13;;;3.20;92.00;;;;;;5032913;28;20080;-87
2021/12/07 00:26:09;;;;;;;58.40;23.58;;;3.20;92.10;;;;;;5019332;28;20534;-87
2021/12/07 00:28:35;;;;;;;55.03;22.70;;;3.20;92.10;;;;;;5019328;28;20453;-87
2021/12/07 00:31:13;;;;;;;57.33;22.15;;;3.20;92.10;;;;;;5036335;28;20078;-87
2021/12/07 00:33:50;;;;;;;56.42;22.27;;;3.20;92.10;;;;;;5020666;28;20074;-85
2021/12/07 00:36:16;;;;;;;57.00;22.88;;;3.20;92.10;;;;;;5007095;28;20526;-86
2021/12/07 00:38:42;;;;;;;53.65;21.55;;;3.20;92.10;;;;;;4999380;28;20570;-86
2021/12/07 00:41:08;;;;;;;59.92;22.77;;;3.20;92.50;;;;;;5017342;28;20073;-86
2021/12/07 00:43:34;;;;;;;59.72;22.85;;;3.20;92.10;;;;;;5003082;28;20133;-85
2021/12/07 00:46:01;;;;;;;54.15;21.90;;;3.20;92.10;;;;;;5037982;28;20076;-85
2021/12/07 00:48:28;;;;;;;53.00;20.48;;;3.20;92.20;;;;;;5033270;28;20103;-85
2021/12/07 00:50:57;;;;;;;57.80;21.92;;;3.20;92.10;;;;;;5016396;28;20087;-85
2021/12/07 00:53:25;;;;;;;52.63;19.77;;;3.20;92.10;;;;;;5035357;28;20522;-85
2021/12/07 00:55:54;;;;;;;53.28;21.77;;;3.10;92.10;;;;;;5033422;28;20522;-86
2021/12/07 00:58:23;;;;;;;50.10;19.55;;;3.10;92.10;;;;;;5029284;28;20066;-86
2021/12/07 01:01:07;;;;;;;49.53;19.50;;;3.10;92.10;;;;;;5013475;28;20086;-86
2021/12/07 01:03:34;;;;;;;51.10;19.40;;;3.10;92.10;;;;;;5038801;28;20105;-87
2021/12/07 01:06:14;;;;;;;49.28;18.95;;;3.10;92.10;;;;;;5017524;28;20094;-87
2021/12/07 01:25:01;;;;;;;47.88;16.58;;;3.00;92.20;;;;;;5053958;28;20194;-84
2021/12/07 01:27:26;;;;;;;39.70;15.18;;;3.00;92.20;;;;;;5035687;28;20616;-84
2021/12/07 01:30:05;;;;;;;38.40;15.55;;;3.00;92.20;;;;;;5033767;28;20090;-83
2021/12/07 02:01:52;;;;;;;32.05;13.23;;;3.00;92.30;;;;;;5064956;28;20163;-85
2021/12/07 02:04:18;;;;;;;37.20;13.13;;;3.00;92.30;;;;;;5054817;28;20098;-85
2021/12/07 02:06:44;;;;;;;36.20;12.45;;;3.00;92.30;;;;;;5055031;28;20111;-85
2021/12/07 02:09:12;;;;;;;36.28;13.90;;;3.00;92.40;;;;;;5052345;28;20564;-86
2021/12/07 02:11:46;;;;;;;32.70;12.18;;;3.00;92.40;;;;;;5068219;28;20154;-86
2021/12/07 02:14:18;;;;;;;33.38;13.25;;;3.00;92.40;;;;;;5051703;28;20094;-86
2021/12/07 02:16:50;;;;;;;35.97;12.70;;;3.00;92.40;;;;;;5048064;28;20657;-86
2021/12/07 02:19:16;;;;;;;33.78;12.93;;;3.00;92.40;;;;;;5060354;28;20075;-86
2021/12/07 02:21:42;;;;;;;35.78;13.32;;;3.00;92.40;;;;;;5021699;28;20083;-87
2021/12/07 02:24:08;;;;;;;36.63;12.82;;;3.00;92.50;;;;;;5037823;28;20075;-87
2021/12/07 02:26:35;;;;;;;34.08;12.35;;;3.00;92.50;;;;;;5048965;28;20077;-87
2021/12/07 02:29:01;;;;;;;37.92;13.73;;;3.00;92.80;;;;;;5031833;28;20177;-88
2021/12/07 02:31:27;;;;;;;33.42;13.48;;;3.00;92.50;;;;;;5049996;28;20079;-87
2021/12/07 02:33:54;;;;;;;33.53;12.45;;;3.00;92.50;;;;;;5050861;28;20172;-88
2021/12/07 02:36:20;;;;;;;35.65;13.05;;;3.00;92.50;;;;;;5069350;28;20535;-87
2021/12/07 02:38:46;;;;;;;35.97;13.80;;;3.00;92.50;;;;;;5034384;28;20178;-87
2021/12/07 02:41:11;;;;;;;33.58;12.98;;;3.00;92.50;;;;;;5031098;28;20079;-87
2021/12/07 02:43:37;;;;;;;36.05;13.25;;;3.00;92.50;;;;;;5074234;28;20074;-87
2021/12/07 02:46:03;;;;;;;32.28;12.45;;;3.00;92.50;;;;;;5032247;28;20086;-87
2021/12/07 02:48:29;;;;;;;33.20;12.13;;;3.00;92.50;;;;;;5049953;28;20437;-87
2021/12/07 02:50:55;;;;;;;33.60;12.75;;;3.00;92.60;;;;;;5034900;28;20078;-87
2021/12/07 02:53:25;;;;;;;33.90;12.50;;;3.00;92.60;;;;;;5036149;28;20078;-85
2021/12/07 02:55:51;;;;;;;34.30;12.45;;;3.00;92.60;;;;;;5052256;28;20075;-86
2021/12/07 02:58:18;;;;;;;32.67;12.77;;;3.00;92.60;;;;;;5050246;28;20076;-86
2021/12/07 03:00:52;;;;;;;29.85;11.57;;;3.00;92.60;;;;;;5049831;28;20538;-85
2021/12/07 03:03:18;;;;;;;33.88;14.13;;;3.00;92.60;;;;;;5035140;28;20133;-86
2021/12/07 03:05:59;;;;;;;33.05;12.18;;;3.00;92.60;;;;;;5033080;28;20076;-85
2021/12/07 03:27:19;;;;;;;35.15;13.82;;;3.00;92.70;;;;;;5060430;28;20086;-84
2021/12/07 03:29:45;;;;;;;38.90;14.68;;;3.00;92.70;;;;;;5053432;28;20090;-84
2021/12/07 03:32:12;;;;;;;33.55;12.93;;;3.00;92.70;;;;;;5039657;28;20067;-84
2021/12/07 03:34:38;;;;;;;34.92;12.15;;;3.00;92.70;;;;;;5034634;28;20120;-83
2021/12/07 03:37:04;;;;;;;32.45;12.80;;;3.00;92.70;;;;;;5029533;28;20083;-83
2021/12/07 03:39:29;;;;;;;37.10;13.52;;;3.00;92.70;;;;;;5054914;28;20162;-84
2021/12/07 03:41:55;;;;;;;36.30;14.55;;;3.00;92.70;;;;;;5035501;28;20514;-83
2021/12/07 03:44:21;;;;;;;38.33;13.68;;;3.00;92.80;;;;;;5055366;28;20082;-83
2021/12/07 03:46:47;;;;;;;33.45;13.02;;;3.00;92.80;;;;;;5038877;28;20107;-83
2021/12/07 03:49:12;;;;;;;36.15;13.02;;;3.00;92.80;;;;;;5022860;28;20133;-83
2021/12/07 03:51:39;;;;;;;34.55;12.23;;;3.10;92.80;;;;;;5041486;28;20084;-83
2021/12/07 03:54:06;;;;;;;35.15;13.27;;;3.10;92.80;;;;;;5054761;28;20083;-84
2021/12/07 03:56:32;;;;;;;39.47;13.10;;;3.10;92.80;;;;;;5047607;28;20110;-83
2021/12/07 03:58:58;;;;;;;37.45;13.45;;;3.10;92.80;;;;;;5047793;28;20085;-84
2021/12/07 04:01:24;;;;;;;41.40;14.05;;;3.10;92.80;;;;;;5017307;28;20079;-83
2021/12/07 04:03:52;;;;;;;42.70;15.95;;;3.10;92.80;;;;;;5045260;28;20583;-84
2021/12/07 04:06:19;;;;;;;35.63;13.45;;;3.10;92.90;;;;;;5049970;28;20480;-84
2021/12/07 04:08:45;;;;;;;41.85;14.50;;;3.10;92.90;;;;;;5052542;28;20164;-84
2021/12/07 04:11:12;;;;;;;38.50;14.25;;;3.10;92.90;;;;;;5066088;28;20128;-86
2021/12/07 04:13:40;;;;;;;44.72;13.88;;;3.10;92.90;;;;;;5046968;28;20492;-86
2021/12/07 04:16:07;;;;;;;41.33;14.50;;;3.10;92.90;;;;;;5050870;28;20119;-86
2021/12/07 04:18:33;;;;;;;44.10;14.55;;;3.10;92.90;;;;;;5074756;28;20094;-86
2021/12/07 04:21:01;;;;;;;40.33;14.10;;;3.10;92.90;;;;;;5052280;28;20105;-87
2021/12/07 04:23:27;;;;;;;41.33;14.88;;;3.10;92.90;;;;;;5038388;28;20087;-87
2021/12/07 04:25:53;;;;;;;40.45;15.18;;;3.10;92.90;;;;;;5053171;28;20089;-87
2021/12/07 04:28:19;;;;;;;43.38;15.55;;;3.20;93.00;;;;;;5052496;28;20870;-87
2021/12/07 04:30:45;;;;;;;43.53;14.02;;;3.20;93.00;;;;;;5032586;28;20136;-87
2021/12/07 04:33:12;;;;;;;44.75;15.13;;;3.20;93.00;;;;;;5018369;28;20086;-87
2021/12/07 04:35:40;;;;;;;35.65;13.75;;;3.10;92.90;;;;;;5033995;28;20081;-87
2021/12/07 04:38:06;;;;;;;40.30;13.77;;;3.20;92.90;;;;;;5035911;28;20180;-87
2021/12/07 04:40:32;;;;;;;43.85;14.77;;;3.20;92.90;;;;;;5038132;28;20737;-87
2021/12/07 04:42:59;;;;;;;40.63;14.40;;;3.20;92.90;;;;;;5020008;28;20087;-86
2021/12/07 04:59:00;;;;;;;38.78;14.88;;;3.00;92.90;;;;;;5069371;28;20086;-84
2021/12/07 05:01:27;;;;;;;43.30;13.95;;;3.00;92.80;;;;;;5047682;28;20079;-85
2021/12/07 05:03:56;;;;;;;46.85;15.05;;;3.00;92.90;;;;;;5048622;28;20081;-83
2021/12/07 05:06:26;;;;;;;47.60;14.48;;;3.00;92.80;;;;;;5033811;28;20082;-82
2021/12/07 05:09:01;;;;;;;46.65;15.57;;;3.00;92.90;;;;;;5032746;28;20107;-83
2021/12/07 05:11:45;;;;;;;44.58;13.98;;;2.90;92.80;;;;;;5037356;28;20517;-82
2021/12/07 05:17:18;;;;;;;44.17;14.38;;;2.90;92.90;;;;;;5058373;28;20099;-82
2021/12/07 05:39:01;;;;;;;48.47;13.98;;;2.90;92.90;;;;;;5040459;28;20205;-83
2021/12/07 05:41:27;;;;;;;43.75;13.27;;;2.80;92.90;;;;;;5057138;28;20165;-84
2021/12/07 05:43:53;;;;;;;48.58;13.52;;;2.80;92.90;;;;;;5037746;28;20113;-85
2021/12/07 05:46:18;;;;;;;44.97;13.20;;;2.80;92.90;;;;;;5021661;28;20085;-84
2021/12/07 05:48:44;;;;;;;40.40;13.23;;;2.80;93.00;;;;;;5036339;28;20079;-83
2021/12/07 05:51:10;;;;;;;40.28;12.77;;;2.80;93.00;;;;;;5036065;28;20105;-83
2021/12/07 05:53:36;;;;;;;49.85;13.18;;;2.80;93.00;;;;;;5051079;28;20445;-83
2021/12/07 05:56:03;;;;;;;41.95;12.98;;;2.80;93.00;;;;;;5035702;28;20073;-83
2021/12/07 05:58:29;;;;;;;41.40;12.52;;;2.80;93.00;;;;;;5051919;28;20154;-80
2021/12/07 06:00:57;;;;;;;49.42;12.75;;;2.80;93.00;;;;;;5050768;28;20166;-80
2021/12/07 06:03:25;;;;;;;37.63;11.68;;;2.80;93.10;;;;;;5052166;28;20067;-80
2021/12/07 06:05:51;;;;;;;48.65;13.05;;;2.90;93.10;;;;;;5052390;28;20079;-80
2021/12/07 06:08:19;;;;;;;45.53;13.70;;;2.90;93.10;;;;;;5051935;28;20063;-80
2021/12/07 06:10:45;;;;;;;37.25;11.55;;;2.90;93.10;;;;;;5033541;28;20109;-80
2021/12/07 06:13:11;;;;;;;35.25;10.65;;;2.90;93.20;;;;;;5052007;28;20087;-80
2021/12/07 06:15:39;;;;;;;39.75;10.45;;;2.90;93.10;;;;;;5028098;28;20564;-80
2021/12/07 06:18:05;;;;;;;38.08;11.88;;;2.90;93.10;;;;;;5045420;28;20580;-80
2021/12/07 06:20:31;;;;;;;33.47;11.82;;;2.90;93.10;;;;;;5052040;28;20086;-80
2021/12/07 06:22:57;;;;;;;33.50;11.43;;;2.90;93.10;;;;;;5050145;28;20071;-80
2021/12/07 06:25:23;;;;;;;35.47;11.18;;;2.90;93.10;;;;;;5053153;28;20554;-80
2021/12/07 06:27:49;;;;;;;34.53;10.85;;;2.90;93.10;;;;;;5059146;28;20083;-80
2021/12/07 06:30:15;;;;;;;34.88;11.63;;;2.90;93.00;;;;;;5054128;28;20119;-80
2021/12/07 06:32:41;;;;;;;34.65;11.40;;;2.90;93.00;;;;;;5054519;28;20520;-80
2021/12/07 06:35:08;;;;;;;30.70;9.93;;;2.90;93.00;;;;;;5074838;28;20064;-80
2021/12/07 06:37:34;;;;;;;30.65;11.10;;;2.90;93.00;;;;;;5031290;28;20156;-80
2021/12/07 06:40:00;;;;;;;31.77;10.02;;;2.90;93.00;;;;;;5053107;28;20066;-78
2021/12/07 06:42:25;;;;;;;39.97;11.25;;;2.90;93.00;;;;;;5073874;28;20091;-78
2021/12/07 06:44:51;;;;;;;30.83;9.63;;;2.90;93.00;;;;;;5053401;28;20074;-79
2021/12/07 06:47:17;;;;;;;26.90;9.18;;;2.90;93.00;;;;;;5039015;28;20453;-78
2021/12/07 06:49:43;;;;;;;33.70;10.55;;;2.90;93.00;;;;;;5037431;28;20097;-78
2021/12/07 06:52:09;;;;;;;28.50;9.93;;;2.90;92.90;;;;;;5037771;28;20075;-78
2021/12/07 06:54:36;;;;;;;33.22;9.80;;;2.90;92.90;;;;;;5072978;28;20070;-78
2021/12/07 06:57:02;;;;;;;32.95;9.15;;;2.80;92.90;;;;;;5041171;28;20101;-78
2021/12/07 06:59:28;;;;;;;35.90;8.90;;;2.80;92.90;;;;;;5073273;28;20083;-78
2021/12/07 07:01:54;;;;;;;25.77;9.85;;;2.80;92.90;;;;;;5042260;28;20452;-78
2021/12/07 07:04:20;;;;;;;34.13;10.25;;;2.80;92.90;;;;;;5048807;28;20073;-78
2021/12/07 07:06:46;;;;;;;28.98;9.68;;;2.80;92.90;;;;;;5074488;28;20087;-80
2021/12/07 07:09:12;;;;;;;35.75;9.35;;;2.80;92.90;;;;;;5066924;28;20469;-80
2021/12/07 07:11:38;;;;;;;36.17;9.65;;;2.80;92.90;;;;;;5057502;28;20121;-80
2021/12/07 07:14:04;;;;;;;38.28;9.73;;;2.80;92.90;;;;;;5055348;28;20083;-80
2021/12/07 07:16:31;;;;;;;30.98;9.40;;;2.80;92.90;;;;;;5036554;28;20570;-80
2021/12/07 07:18:57;;;;;;;37.15;10.48;;;2.70;93.30;;;;;;5051598;28;20071;-80
2021/12/07 07:21:22;;;;;;;32.95;10.05;;;2.80;93.00;;;;;;5038204;28;20077;-80
2021/12/07 07:23:49;;;;;;;25.25;8.38;;;2.80;93.00;;;;;;5048855;28;20167;-80
2021/12/07 07:26:15;;;;;;;30.60;8.98;;;2.80;93.00;;;;;;5049467;28;20102;-80
2021/12/07 07:28:41;;;;;;;32.03;8.77;;;2.80;93.00;;;;;;5070453;28;20544;-80
2021/12/07 07:31:08;;;;;;;33.33;10.10;;;2.70;93.00;;;;;;5051827;28;20083;-80
2021/12/07 07:33:34;;;;;;;37.80;8.50;;;2.80;93.10;;;;;;5052058;28;20161;-80
2021/12/07 07:36:00;;;;;;;42.72;10.70;;;2.80;93.10;;;;;;5054254;28;20481;-80
2021/12/07 07:38:26;;;;;;;36.10;10.35;;;2.80;93.10;;;;;;5068875;28;20101;-77
2021/12/07 07:40:52;;;;;;;43.25;9.52;;;2.80;93.10;;;;;;5058007;28;20526;-78
2021/12/07 07:43:19;;;;;;;35.33;9.73;;;2.70;93.10;;;;;;5047641;28;20441;-77
2021/12/07 07:45:46;;;;;;;42.67;9.23;;;2.80;93.10;;;;;;5028467;28;20075;-77
2021/12/07 07:48:12;;;;;;;36.55;9.60;;;2.70;93.00;;;;;;5064463;28;20071;-80
2021/12/07 07:50:38;;;;;;;34.70;9.45;;;2.80;93.10;;;;;;5060573;28;20083;-80
2021/12/07 07:53:06;;;;;;;41.50;10.15;;;2.70;93.00;;;;;;5067182;28;20073;-80
2021/12/07 07:55:35;;;;;;;36.13;9.75;;;2.80;93.10;;;;;;5063211;28;20077;-80
2021/12/07 07:58:04;;;;;;;29.20;9.25;;;2.80;93.10;;;;;;5036196;28;20067;-77
2021/12/07 08:00:30;;;;;;;33.83;10.18;;;2.70;93.10;;;;;;5053432;28;20449;-77
2021/12/07 08:02:55;;;;;;;34.88;9.88;;;2.70;93.10;;;;;;5049395;28;20071;-77
2021/12/07 08:05:22;;;;;;;27.17;8.63;;;2.70;93.10;;;;;;5035898;28;20075;-77
2021/12/07 08:07:47;;;;;;;33.72;8.15;;;2.70;93.10;;;;;;5049181;28;20110;-77
2021/12/07 08:10:16;;;;;;;37.95;9.82;;;2.70;93.10;;;;;;5030354;28;20118;-77
2021/12/07 08:12:42;;;;;;;31.48;9.02;;;2.70;93.10;;;;;;5051759;28;20097;-77
2021/12/07 08:15:08;;;;;;;41.00;10.40;;;2.80;93.20;;;;;;5047880;28;20107;-77
2021/12/07 08:17:34;;;;;;;26.23;9.32;;;2.70;93.10;;;;;;5068424;28;20107;-77
2021/12/07 08:20:00;;;;;;;35.55;9.35;;;2.70;93.10;;;;;;5049983;28;20136;-77
2021/12/07 08:22:28;;;;;;;37.30;8.95;;;2.70;93.20;;;;;;5066476;28;20582;-77
2021/12/07 08:24:54;;;;;;;28.25;8.27;;;2.80;93.20;;;;;;5046606;28;20170;-77
2021/12/07 08:27:20;;;;;;;34.03;8.35;;;2.70;93.20;;;;;;5045869;28;20166;-77
2021/12/07 08:29:45;;;;;;;35.78;8.65;;;2.70;93.20;;;;;;5036154;28;20461;-77
2021/12/07 08:32:11;;;;;;;26.27;7.65;;;2.80;93.20;;;;;;5066707;28;20080;-77
2021/12/07 08:34:37;;;;;;;26.75;8.27;;;2.70;93.20;;;;;;5051086;28;20067;-81
2021/12/07 08:37:02;;;;;;;30.35;7.68;;;2.80;93.20;;;;;;5052293;28;20441;-81
2021/12/07 08:39:28;;;;;;;33.25;8.23;;;2.80;93.20;;;;;;5054542;28;20079;-77
2021/12/07 08:41:54;;;;;;;47.58;9.18;;;2.80;93.20;;;;;;5054832;28;20089;-81
2021/12/07 08:44:19;;;;;;;37.60;8.45;;;2.80;93.20;;;;;;5055542;28;20071;-81
2021/12/07 08:46:46;;;;;;;39.63;10.32;;;2.80;93.20;;;;;;5045701;28;20081;-77
2021/12/07 08:49:12;;;;;;;36.20;8.60;;;2.80;93.30;;;;;;5053744;28;20572;-77
2021/12/07 08:51:39;;;;;;;57.50;13.82;;;2.80;93.30;;;;;;5071842;28;21169;-81
2021/12/07 08:59:44;;;;;;;43.35;12.30;;;2.90;93.40;;;;;;5056353;28;20488;-77
2021/12/07 09:02:16;;;;;;;39.58;10.13;;;2.90;93.40;;;;;;5062243;28;20161;-78
2021/12/07 09:04:41;;;;;;;46.47;10.80;;;2.90;93.40;;;;;;5047420;28;20071;-81
2021/12/07 09:07:07;;;;;;;38.47;9.65;;;2.90;93.80;;;;;;5054268;28;20075;-82
2021/12/07 09:09:34;;;;;;;42.60;12.02;;;2.90;93.50;;;;;;5069137;28;20186;-81
2021/12/07 09:11:59;;;;;;;43.92;11.68;;;2.90;93.50;;;;;;5049467;28;20090;-78
2021/12/07 09:14:27;;;;;;;53.88;13.60;;;3.00;93.60;;;;;;5049815;28;20098;-78
2021/12/07 09:16:53;;;;;;;57.30;10.80;;;3.00;93.60;;;;;;5076109;28;20097;-78
2021/12/07 09:19:20;;;;;;;44.85;10.65;;;3.00;93.60;;;;;;5049529;28;20114;-80
2021/12/07 09:21:45;;;;;;;56.78;11.77;;;3.10;93.70;;;;;;5042227;28;20464;-78
2021/12/07 09:24:11;;;;;;;52.67;11.73;;;3.10;93.70;;;;;;5067531;28;20079;-77
2021/12/07 09:26:37;;;;;;;38.53;11.15;;;3.10;93.70;;;;;;5069967;28;20074;-80
2021/12/07 09:29:05;;;;;;;33.63;10.82;;;3.10;93.70;;;;;;5050669;28;20099;-80
2021/12/07 09:31:31;;;;;;;40.75;11.20;;;3.10;93.70;;;;;;5022712;28;20071;-80
2021/12/07 09:33:57;;;;;;;44.58;11.00;;;3.20;93.80;;;;;;5068914;28;20079;-81
2021/12/07 09:36:25;;;;;;;50.03;11.95;;;3.20;93.80;;;;;;5037212;28;20161;-80
2021/12/07 09:38:50;;;;;;;42.63;10.45;;;3.20;93.80;;;;;;5054648;28;20539;-77
2021/12/07 09:41:18;;;;;;;56.67;12.52;;;3.20;93.80;;;;;;5069487;28;20161;-77
2021/12/07 09:43:45;;;;;;;54.05;10.48;;;3.30;93.80;;;;;;5071959;28;20076;-78
2021/12/07 09:46:12;;;;;;;47.25;11.18;;;3.30;93.90;;;;;;5051396;28;20573;-78
2021/12/07 09:48:38;;;;;;;39.67;11.07;;;3.30;93.90;;;;;;5052356;28;20066;-78
2021/12/07 09:51:06;;;;;;;45.03;11.15;;;3.30;93.90;;;;;;5068723;28;20158;-80
2021/12/07 09:53:32;;;;;;;39.03;10.70;;;3.40;94.00;;;;;;5041711;28;20112;-80
2021/12/07 09:56:00;;;;;;;36.03;9.82;;;3.40;93.90;;;;;;5049604;28;20082;-80
2021/12/07 09:58:26;;;;;;;39.92;9.88;;;3.40;94.00;;;;;;5074754;28;20075;-78
2021/12/07 10:00:52;;;;;;;41.30;10.10;;;3.50;94.00;;;;;;5070203;28;20107;-80
2021/12/07 10:03:20;;;;;;;43.13;10.73;;;3.60;94.10;;;;;;5052336;28;20114;-80
2021/12/07 10:05:45;;;;;;;42.15;9.88;;;3.60;94.10;;;;;;5051605;28;20105;-78
2021/12/07 10:08:12;;;;;;;30.98;8.77;;;3.60;94.10;;;;;;5033046;28;20534;-79
2021/12/07 10:10:44;;;;;;;37.78;9.63;;;3.70;94.10;;;;;;5051257;28;20182;-79
2021/12/07 10:13:11;;;;;;;28.92;8.73;;;3.70;94.10;;;;;;5075582;28;20074;-79
2021/12/07 10:15:38;;;;;;;24.88;9.40;;;3.70;94.20;;;;;;5055009;28;20165;-79
2021/12/07 10:18:10;;;;;;;27.65;8.82;;;3.80;94.20;;;;;;5078733;28;20164;-79
2021/12/07 10:20:48;;;;;;;31.98;10.32;;;3.80;94.20;;;;;;5054000;28;20158;-79
2021/12/07 10:23:14;;;;;;;43.67;9.48;;;3.90;94.20;;;;;;5075400;28;21654;-77
2021/12/07 10:25:55;;;;;;;28.45;9.65;;;4.00;94.30;;;;;;5070406;28;20075;-77
2021/12/07 10:28:36;;;;;;;24.65;9.18;;;4.00;94.20;;;;;;5069467;28;20148;-78
2021/12/07 10:31:15;;;;;;;27.13;8.10;;;4.00;94.20;;;;;;5070099;28;20078;-77
2021/12/07 10:34:11;;;;;;;26.73;7.63;;;4.10;94.20;;;;;;5067183;28;20088;-78
2021/12/07 10:36:41;;;;;;;25.60;7.85;;;4.20;94.30;;;;;;5063070;28;20548;-77
2021/12/07 10:39:12;;;;;;;26.52;7.47;;;4.20;94.20;;;;;;5054344;28;20064;-78
2021/12/07 10:41:42;;;;;;;30.50;8.95;;;4.20;94.20;;;;;;5055110;28;20086;-78
2021/12/07 10:44:12;;;;;;;32.33;8.75;;;4.30;94.30;;;;;;5067209;28;20156;-78
2021/12/07 10:46:37;;;;;;;28.17;8.90;;;4.30;94.20;;;;;;5049595;28;20081;-78
2021/12/07 10:49:13;;;;;;;29.33;8.48;;;4.40;94.20;;;;;;5072847;28;20084;-78
2021/12/07 10:51:41;;;;;;;30.25;8.15;;;4.40;94.30;;;;;;5050539;28;20552;-77
2021/12/07 10:54:08;;;;;;;30.27;10.80;;;4.40;94.60;;;;;;5047151;28;20076;-77
2021/12/07 10:56:38;;;;;;;35.55;9.57;;;4.50;94.20;;;;;;5050947;28;20160;-77
2021/12/07 10:59:09;;;;;;;33.42;8.88;;;4.50;94.20;;;;;;5050080;28;20074;-77
2021/12/07 11:01:42;;;;;;;30.27;7.97;;;4.50;94.20;;;;;;5073318;28;20098;-77
2021/12/07 11:04:29;;;;;;;31.90;8.40;;;4.60;94.20;;;;;;5053690;28;20074;-78
2021/12/07 11:07:07;;;;;;;27.20;7.80;;;4.60;94.20;;;;;;5071558;28;20514;-78
2021/12/07 11:12:34;;;;;;;24.58;7.60;;;4.60;94.20;;;;;;5067219;28;20092;-78
2021/12/07 11:15:01;;;;;;;27.65;8.23;;;4.60;94.10;;;;;;5069766;28;20563;-78
2021/12/07 11:17:33;;;;;;;31.15;8.52;;;4.60;94.10;;;;;;5074449;28;20149;-78
2021/12/07 11:20:00;;;;;;;22.75;7.88;;;4.70;94.20;;;;;;5055231;28;20515;-78
2021/12/07 11:22:31;;;;;;;26.67;8.45;;;4.70;94.20;;;;;;5051881;28;20430;-78
2021/12/07 11:25:01;;;;;;;26.95;9.35;;;4.70;94.10;;;;;;5067561;28;20068;-78
2021/12/07 11:30:28;;;;;;;28.02;8.70;;;4.80;94.20;;;;;;4965737;28;20547;-78
2021/12/07 11:32:56;;;;;;;;;;;4.90;94.30;;;;;;5067508;28;20067;-77
2021/12/07 11:35:26;;;;;;;23.25;7.78;;;5.00;94.20;;;;;;5053985;28;19961;-77
2021/12/07 11:37:55;;;;;;;26.40;7.03;;;5.10;94.20;;;;;;5053720;28;20099;-78
2021/12/07 11:40:30;;;;;;;28.27;7.72;;;5.10;94.10;;;;;;5048124;28;20787;-78
2021/12/07 11:42:56;;;;;;;30.88;8.38;;;5.20;94.20;;;;;;5070686;28;20165;-78
2021/12/07 11:45:25;;;;;;;31.60;9.05;;;5.20;94.10;;;;;;5064323;28;20150;-78
2021/12/07 11:47:57;;;;;;;30.05;8.90;;;5.30;94.20;;;;;;5070241;28;20550;-78
2021/12/07 11:50:32;;;;;;;22.60;8.45;;;5.40;94.20;;;;;;5052657;28;20086;-77
2021/12/07 11:53:10;;;;;;;27.55;9.07;;;5.40;94.10;;;;;;5049314;28;20066;-77
2021/12/07 11:55:39;;;;;;;18.20;8.07;;;5.40;94.00;;;;;;5071412;28;20054;-77
2021/12/07 11:58:07;;;;;;;24.35;8.90;;;5.50;93.90;;;;;;5068775;28;20612;-77
2021/12/07 12:00:37;;;;;;;29.25;8.35;;;5.50;93.90;;;;;;5037551;28;20054;-76
2021/12/07 12:03:09;;;;;;;29.02;8.00;;;5.50;93.90;;;;;;5046954;28;20064;-77
2021/12/07 12:05:37;;;;;;;35.47;7.45;;;5.60;93.80;;;;;;5074240;28;20052;-77
2021/12/07 12:08:08;;;;;;;27.55;8.55;;;5.50;93.70;;;;;;5047943;28;20126;-77
2021/12/07 12:10:35;;;;;;;24.52;7.75;;;5.60;93.70;;;;;;5071253;28;20117;-77
2021/12/07 12:13:46;;;;;;;38.08;7.93;;;5.60;93.70;;;;;;5051818;28;20090;-77
2021/12/07 12:16:18;;;;;;;19.45;8.07;;;5.60;93.70;;;;;;5051301;28;20057;-77
2021/12/07 12:19:02;;;;;;;22.40;7.03;;;5.60;93.60;;;;;;5071213;28;20099;-77
2021/12/07 12:21:58;;;;;;;31.05;9.27;;;5.60;93.60;;;;;;5052972;28;20062;-77
2021/12/07 12:24:30;;;;;;;36.22;8.57;;;5.60;93.60;;;;;;5051689;28;20453;-77
2021/12/07 12:27:14;;;;;;;28.90;8.88;;;5.60;93.50;;;;;;5074189;28;20146;-77
2021/12/07 12:29:42;;;;;;;19.95;8.65;;;5.60;93.50;;;;;;5053153;28;20082;-77
2021/12/07 12:32:08;;;;;;;29.33;7.82;;;5.50;93.50;;;;;;5072109;28;20066;-77
2021/12/07 12:34:48;;;;;;;28.60;7.65;;;5.50;93.50;;;;;;5050817;28;20677;-77
2021/12/07 12:37:23;;;;;;;22.98;8.90;;;5.60;93.50;;;;;;5074504;28;20149;-77
2021/12/07 12:39:53;;;;;;;35.03;9.50;;;5.50;93.50;;;;;;5052830;28;20075;-76
2021/12/07 12:42:28;;;;;;;25.33;9.75;;;5.50;93.50;;;;;;5075783;28;20071;-76
2021/12/07 12:45:26;;;;;;;24.58;7.88;;;5.50;93.50;;;;;;5072160;28;20072;-76
2021/12/07 12:48:17;;;;;;;23.08;7.78;;;5.50;93.50;;;;;;5067420;28;20068;-77
2021/12/07 12:50:42;;;;;;;21.38;7.13;;;5.50;93.50;;;;;;5073988;28;20166;-77
2021/12/07 12:53:15;;;;;;;22.65;7.70;;;5.50;93.50;;;;;;5064642;28;20144;-76
2021/12/07 12:55:42;;;;;;;23.88;7.70;;;5.50;93.80;;;;;;5049443;28;20071;-76
2021/12/07 12:58:28;;;;;;;27.40;7.93;;;5.50;93.50;;;;;;5071403;28;20075;-77
2021/12/07 13:01:12;;;;;;;22.85;7.78;;;5.50;93.50;;;;;;5035146;28;20069;-77
2021/12/07 13:03:52;;;;;;;26.58;7.65;;;5.50;93.40;;;;;;5071023;28;20080;-77
2021/12/07 13:06:33;;;;;;;31.23;9.10;;;5.50;93.40;;;;;;5071809;28;20070;-77
2021/12/07 13:09:20;;;;;;;33.88;9.82;;;5.50;93.40;;;;;;5048552;28;20083;-77
2021/12/07 13:11:58;;;;;;;25.70;7.43;;;5.60;93.40;;;;;;5047452;28;20115;-77
2021/12/07 13:14:24;;;;;;;26.83;7.68;;;5.60;93.40;;;;;;5077000;28;20058;-77
2021/12/07 13:17:20;;;;;;;29.38;7.05;;;5.50;93.30;;;;;;5053098;28;20104;-77
2021/12/07 13:20:06;;;;;;;20.23;8.13;;;5.60;93.30;;;;;;5070101;28;20059;-77
2021/12/07 13:22:49;;;;;;;34.47;9.40;;;5.60;93.30;;;;;;5045957;28;20076;-77
2021/12/07 13:25:27;;;;;;;27.80;7.93;;;5.60;93.30;;;;;;5069179;28;20087;-77
2021/12/07 13:28:11;;;;;;;25.90;7.63;;;5.60;93.30;;;;;;5066990;28;20067;-77
2021/12/07 13:30:49;;;;;;;28.95;8.88;;;5.60;93.30;;;;;;5049598;28;20080;-76
2021/12/07 13:33:23;;;;;;;33.55;8.75;;;5.60;93.30;;;;;;5051764;28;20574;-77
2021/12/07 13:35:50;;;;;;;23.85;9.15;;;5.60;93.30;;;;;;5049281;28;20066;-77
2021/12/07 13:38:20;;;;;;;31.67;10.73;;;5.60;93.20;;;;;;5065114;28;20504;-77
2021/12/07 13:40:49;;;;;;;35.38;10.43;;;5.60;93.20;;;;;;5063321;28;20474;-76
2021/12/07 13:43:42;;;;;;;26.63;9.82;;;5.60;93.20;;;;;;5063955;28;20068;-77
2021/12/07 13:46:07;;;;;;;30.42;9.50;;;5.60;93.20;;;;;;5066112;28;20083;-77
2021/12/07 13:48:33;;;;;;;29.20;11.43;;;5.60;93.20;;;;;;5061528;28;20076;-76
2021/12/07 13:50:59;;;;;;;38.55;12.43;;;5.50;93.20;;;;;;5066943;28;20429;-76
2021/12/07 13:53:26;;;;;;;41.30;12.82;;;5.50;93.20;;;;;;5068407;28;20152;-76
2021/12/07 13:55:52;;;;;;;37.20;12.20;;;5.50;93.20;;;;;;5067850;28;20057;-76
2021/12/07 13:58:18;;;;;;;36.58;13.07;;;5.50;93.20;;;;;;5048998;28;20090;-76
2021/12/07 14:00:44;;;;;;;40.72;12.93;;;5.40;93.10;;;;;;5030737;28;20075;-76
2021/12/07 14:03:13;;;;;;;33.75;13.23;;;5.40;93.20;;;;;;5048586;28;20075;-77
2021/12/07 14:05:42;;;;;;;48.13;16.27;;;5.40;93.10;;;;;;5048542;28;20075;-76
2021/12/07 14:08:14;;;;;;;52.45;16.05;;;5.40;93.10;;;;;;5065838;28;20163;-77
2021/12/07 14:10:43;;;;;;;52.10;16.42;;;5.30;93.10;;;;;;5049272;28;20559;-76
2021/12/07 14:13:09;;;;;;;47.22;15.88;;;5.30;93.10;;;;;;5063411;28;20164;-76
2021/12/07 14:15:37;;;;;;;47.65;15.63;;;5.30;93.10;;;;;;5069237;28;20502;-76
2021/12/07 14:18:15;;;;;;;51.90;16.58;;;5.20;93.10;;;;;;5047965;28;20102;-76
2021/12/07 14:20:57;;;;;;;46.72;16.25;;;5.20;93.10;;;;;;5072506;28;20076;-76
2021/12/07 14:23:41;;;;;;;57.63;16.73;;;5.20;93.10;;;;;;5065107;28;20083;-76
2021/12/07 14:26:24;;;;;;;51.67;15.73;;;5.20;93.10;;;;;;5042941;28;20069;-75
2021/12/07 14:28:52;;;;;;;50.28;16.38;;;5.10;93.00;;;;;;5067508;28;20086;-76
2021/12/07 14:31:24;;;;;;;58.65;17.25;;;5.10;93.00;;;;;;5065410;28;20075;-76
2021/12/07 14:34:02;;;;;;;48.17;15.73;;;5.10;93.10;;;;;;5048118;28;20094;-76
2021/12/07 14:36:37;;;;;;;45.38;17.60;;;5.00;93.00;;;;;;5047957;28;20059;-76
2021/12/07 14:39:05;;;;;;;38.17;15.88;;;5.00;93.00;;;;;;5047244;28;20065;-76
2021/12/07 14:41:31;;;;;;;48.53;17.80;;;5.00;93.10;;;;;;5046925;28;20151;-76
2021/12/07 14:43:57;;;;;;;53.92;16.60;;;5.00;93.10;;;;;;5055651;28;20509;-76